Time;durP1;ratioP1;P1;durP2;ratioP2;P2;SDS_P1;SDS_P2;PMS_P1;PMS_P2;Temp;Humidity;BMP_temperature;BMP_pressure;BME280_temperature;BME280_humidity;BME280_pressure;Samples;Min_cycle;Max_cycle;Signal;HPM_P1;HPM_P2
2021/11/12 00:13:17;;;;;;;2.17;0.20;;;;;;;;;;2046805;28;20117;-83
2021/11/12 00:14:43;;;;;;;2.70;0.40;;;;;;;;;;2050047;28;20074;-83
2021/11/12 00:16:05;;;;;;;1.05;0.20;;;;;;;;;;2046688;28;20039;-83
2021/11/12 00:17:30;;;;;;;3.13;0.47;;;;;;;;;;2045739;29;20483;-84
2021/11/12 00:18:49;;;;;;;0.40;0.20;;;;;;;;;;2047930;28;20565;-84
2021/11/12 00:20:08;;;;;;;1.08;0.50;;;;;;;;;;2049714;28;20384;-84
2021/11/12 00:21:27;;;;;;;0.47;0.30;;;;;;;;;;2055138;28;20036;-83
2021/11/12 00:22:45;;;;;;;1.30;0.20;;;;;;;;;;2057299;28;20013;-83
2021/11/12 00:24:04;;;;;;;0.43;0.17;;;;;;;;;;2050995;28;20031;-83
2021/11/12 00:25:23;;;;;;;0.10;0.10;;;;;;;;;;2048094;28;20039;-83
2021/11/12 00:26:42;;;;;;;0.73;0.20;;;;;;;;;;2058027;28;20027;-83
2021/11/12 00:28:01;;;;;;;0.82;0.20;;;;;;;;;;2047993;28;20031;-83
2021/11/12 00:29:20;;;;;;;0.32;0.20;;;;;;;;;;2046755;28;20027;-83
2021/11/12 00:30:55;;;;;;;0.60;0.25;;;;;;;;;;2045356;28;20043;-84
2021/11/12 00:36:42;;;;;;;4.03;0.40;;;;;;;;;;2061214;28;20024;-84
2021/11/12 00:38:08;;;;;;;0.82;0.20;;;;;;;;;;2044299;28;20043;-83
2021/11/12 00:39:37;;;;;;;1.45;0.30;;;;;;;;;;2045012;28;20023;-83
2021/11/12 00:41:12;;;;;;;2.70;0.20;;;;;;;;;;2057463;28;20021;-82
2021/11/12 00:42:41;;;;;;;1.17;0.30;;;;;;;;;;2046261;28;20036;-84
2021/11/12 00:44:11;;;;;;;0.30;0.20;;;;;;;;;;2052765;28;20035;-83
2021/11/12 00:45:32;;;;;;;1.50;0.22;;;;;;;;;;2049115;28;20075;-84
2021/11/12 00:46:55;;;;;;;0.68;0.20;;;;;;;;;;2050886;28;20054;-83
2021/11/12 00:48:21;;;;;;;0.25;0.17;;;;;;;;;;2048244;28;20023;-84
2021/11/12 00:49:43;;;;;;;0.80;0.52;;;;;;;;;;2047534;28;20114;-83
2021/11/12 00:52:05;;;;;;;2.00;0.32;;;;;;;;;;2046815;28;20055;-84
2021/11/12 00:54:12;;;;;;;0.80;0.20;;;;;;;;;;2046695;28;20047;-84
2021/11/12 00:55:36;;;;;;;3.95;0.38;;;;;;;;;;2045445;29;20514;-83
2021/11/12 00:56:56;;;;;;;0.60;0.20;;;;;;;;;;2045423;29;20028;-84
2021/11/12 00:58:15;;;;;;;0.50;0.28;;;;;;;;;;2049268;28;20186;-84
2021/11/12 00:59:34;;;;;;;1.50;0.22;;;;;;;;;;2045918;28;20027;-84
2021/11/12 01:00:53;;;;;;;1.35;0.32;;;;;;;;;;2045843;28;20027;-84
2021/11/12 01:02:13;;;;;;;0.25;0.15;;;;;;;;;;2043887;28;20027;-84
2021/11/12 01:03:32;;;;;;;4.57;0.10;;;;;;;;;;2049243;28;20025;-83
2021/11/12 01:04:51;;;;;;;1.20;0.20;;;;;;;;;;2044192;28;20450;-83
2021/11/12 01:06:09;;;;;;;2.05;0.20;;;;;;;;;;2048211;28;20039;-84
2021/11/12 01:07:29;;;;;;;1.08;0.30;;;;;;;;;;2046230;28;20063;-82
2021/11/12 01:08:49;;;;;;;0.80;0.20;;;;;;;;;;2045019;28;20073;-82
2021/11/12 01:10:10;;;;;;;0.25;0.20;;;;;;;;;;2048385;28;20031;-83
2021/11/12 01:11:29;;;;;;;0.40;0.30;;;;;;;;;;2051509;28;20118;-83
2021/11/12 01:12:48;;;;;;;1.05;0.10;;;;;;;;;;2051576;28;20047;-83
2021/11/12 01:14:07;;;;;;;1.25;0.50;;;;;;;;;;2046344;28;20059;-83
2021/11/12 01:15:26;;;;;;;1.67;0.20;;;;;;;;;;2045965;28;20035;-83
2021/11/12 01:16:45;;;;;;;0.47;0.30;;;;;;;;;;2049681;28;20035;-83
2021/11/12 01:18:04;;;;;;;1.20;0.30;;;;;;;;;;2047066;28;20491;-83
2021/11/12 01:19:22;;;;;;;1.05;0.30;;;;;;;;;;2044923;28;20031;-83
2021/11/12 01:20:42;;;;;;;0.60;0.20;;;;;;;;;;2045951;28;20028;-83
2021/11/12 01:22:02;;;;;;;1.60;0.20;;;;;;;;;;2046847;28;20039;-83
2021/11/12 01:23:21;;;;;;;2.08;0.20;;;;;;;;;;2056219;28;20152;-82
2021/11/12 01:24:40;;;;;;;0.88;0.20;;;;;;;;;;2047376;28;20056;-83
2021/11/12 01:25:59;;;;;;;5.05;0.45;;;;;;;;;;2043526;28;20123;-84
2021/11/12 01:27:19;;;;;;;1.10;0.10;;;;;;;;;;2045160;28;20102;-83
2021/11/12 01:28:38;;;;;;;3.17;0.50;;;;;;;;;;2044236;28;20031;-82
2021/11/12 01:29:57;;;;;;;1.63;0.38;;;;;;;;;;2047712;28;20459;-83
2021/11/12 01:31:16;;;;;;;0.73;0.32;;;;;;;;;;2049133;28;20118;-83
2021/11/12 01:32:35;;;;;;;1.45;0.30;;;;;;;;;;2051229;28;20700;-83
2021/11/12 01:34:00;;;;;;;0.68;0.20;;;;;;;;;;2048340;28;20438;-83
2021/11/12 01:35:20;;;;;;;2.25;0.30;;;;;;;;;;2046971;28;20036;-82
2021/11/12 01:36:43;;;;;;;1.13;0.20;;;;;;;;;;2057678;28;20129;-83
2021/11/12 01:38:02;;;;;;;0.60;0.15;;;;;;;;;;2048113;28;20502;-82
2021/11/12 01:39:21;;;;;;;0.28;0.20;;;;;;;;;;2045654;28;20110;-82
2021/11/12 01:40:40;;;;;;;0.95;0.30;;;;;;;;;;2056796;28;20526;-83
2021/11/12 01:42:00;;;;;;;0.30;0.20;;;;;;;;;;2048721;28;20043;-83
2021/11/12 01:43:22;;;;;;;0.38;0.22;;;;;;;;;;2046225;28;20043;-82
2021/11/12 01:44:47;;;;;;;0.22;0.10;;;;;;;;;;2048600;28;20491;-82
2021/11/12 01:50:27;;;;;;;0.40;0.30;;;;;;;;;;2059274;28;20029;-82
2021/11/12 01:53:10;;;;;;;2.47;0.40;;;;;;;;;;2048386;28;20031;-82
2021/11/12 01:56:23;;;;;;;1.13;0.40;;;;;;;;;;2049410;28;20106;-82
2021/11/12 01:58:38;;;;;;;0.30;0.10;;;;;;;;;;2049019;28;20035;-82
2021/11/12 01:59:23;;;;;;;0.50;0.40;;;;;;;;;;2047004;28;20067;-82
2021/11/12 02:00:42;;;;;;;0.28;0.10;;;;;;;;;;2048830;28;20027;-82
2021/11/12 02:02:07;;;;;;;0.30;0.20;;;;;;;;;;2049934;28;20047;-82
2021/11/12 02:03:27;;;;;;;0.68;0.40;;;;;;;;;;2044363;28;20023;-82
2021/11/12 02:04:46;;;;;;;0.50;0.20;;;;;;;;;;2045790;29;20035;-82
2021/11/12 02:06:04;;;;;;;1.40;0.32;;;;;;;;;;2045891;28;20031;-83
2021/11/12 02:07:23;;;;;;;0.93;0.30;;;;;;;;;;2050344;28;20023;-82
2021/11/12 02:08:42;;;;;;;0.35;0.22;;;;;;;;;;2049536;28;20523;-82
2021/11/12 02:10:06;;;;;;;0.98;0.38;;;;;;;;;;2045089;28;20089;-82
2021/11/12 02:11:24;;;;;;;0.10;0.10;;;;;;;;;;2054801;28;20026;-82
2021/11/12 02:14:22;;;;;;;0.43;0.15;;;;;;;;;;2053273;28;20039;-82
2021/11/12 02:15:42;;;;;;;0.52;0.10;;;;;;;;;;2048320;28;20043;-82
2021/11/12 02:17:10;;;;;;;0.68;0.22;;;;;;;;;;2048263;29;20396;-82
2021/11/12 02:18:31;;;;;;;0.30;0.20;;;;;;;;;;2055089;28;20126;-83
2021/11/12 02:19:56;;;;;;;1.75;0.15;;;;;;;;;;2047922;28;20031;-82
2021/11/12 02:22:51;;;;;;;0.43;0.20;;;;;;;;;;2046619;28;20539;-83
2021/11/12 02:24:12;;;;;;;1.88;0.30;;;;;;;;;;2051851;28;20031;-83
2021/11/12 02:25:39;;;;;;;0.30;0.20;;;;;;;;;;2046718;28;20459;-83
2021/11/12 02:26:58;;;;;;;0.22;0.20;;;;;;;;;;2044812;28;20050;-83
2021/11/12 02:28:18;;;;;;;0.77;0.50;;;;;;;;;;2045616;28;20024;-83
2021/11/12 02:29:41;;;;;;;0.10;0.10;;;;;;;;;;2047522;28;20110;-83
2021/11/12 02:31:00;;;;;;;1.35;0.30;;;;;;;;;;2043108;28;20503;-83
2021/11/12 02:32:25;;;;;;;0.52;0.10;;;;;;;;;;2047104;28;20046;-82
2021/11/12 02:33:44;;;;;;;0.40;0.22;;;;;;;;;;2054000;28;20032;-83
2021/11/12 02:35:03;;;;;;;1.65;0.20;;;;;;;;;;2049238;28;20027;-83
2021/11/12 02:36:22;;;;;;;0.20;0.10;;;;;;;;;;2045176;28;20043;-83
2021/11/12 02:37:41;;;;;;;0.85;0.28;;;;;;;;;;2046906;28;20043;-83
2021/11/12 02:39:00;;;;;;;0.17;0.10;;;;;;;;;;2046339;28;20452;-84
2021/11/12 02:40:19;;;;;;;0.47;0.20;;;;;;;;;;2044168;28;20035;-83
2021/11/12 02:41:39;;;;;;;0.38;0.20;;;;;;;;;;2045558;28;20059;-83
2021/11/12 02:42:58;;;;;;;0.25;0.17;;;;;;;;;;2043711;28;20047;-84
2021/11/12 02:44:19;;;;;;;0.22;0.15;;;;;;;;;;2047442;28;20027;-82
2021/11/12 02:45:38;;;;;;;0.28;0.20;;;;;;;;;;2047247;28;20031;-83
2021/11/12 02:46:57;;;;;;;0.30;0.20;;;;;;;;;;2053644;28;20032;-83
2021/11/12 02:48:17;;;;;;;0.57;0.30;;;;;;;;;;2048249;28;20027;-83
2021/11/12 02:49:36;;;;;;;0.40;0.40;;;;;;;;;;2045907;28;20687;-83
2021/11/12 02:50:55;;;;;;;0.52;0.25;;;;;;;;;;2048108;28;20032;-83
2021/11/12 02:52:19;;;;;;;0.22;0.22;;;;;;;;;;2048664;28;20043;-83
2021/11/12 02:53:39;;;;;;;0.45;0.20;;;;;;;;;;2048872;28;20035;-83
2021/11/12 02:54:58;;;;;;;0.60;0.20;;;;;;;;;;2043355;29;20392;-84
2021/11/12 02:56:26;;;;;;;0.32;0.17;;;;;;;;;;2048813;28;20031;-84
2021/11/12 02:57:46;;;;;;;1.15;0.30;;;;;;;;;;2051113;28;20039;-83
2021/11/12 02:59:06;;;;;;;0.08;0.08;;;;;;;;;;2046713;28;20035;-83
2021/11/12 03:00:26;;;;;;;0.65;0.20;;;;;;;;;;2045787;28;20027;-83
2021/11/12 03:01:46;;;;;;;0.90;0.20;;;;;;;;;;2043217;28;20027;-84
2021/11/12 03:03:06;;;;;;;1.27;0.30;;;;;;;;;;2046276;28;20035;-83
2021/11/12 03:04:24;;;;;;;0.52;0.10;;;;;;;;;;2049552;28;20893;-84
2021/11/12 03:05:43;;;;;;;1.08;0.40;;;;;;;;;;2045581;28;20067;-83
2021/11/12 03:07:02;;;;;;;2.38;0.20;;;;;;;;;;2048937;28;20027;-82
2021/11/12 03:08:21;;;;;;;1.10;0.30;;;;;;;;;;2042837;29;20081;-82
2021/11/12 03:09:40;;;;;;;0.10;0.10;;;;;;;;;;2044109;28;20036;-82
2021/11/12 03:10:59;;;;;;;0.10;0.10;;;;;;;;;;2048349;28;20511;-83
2021/11/12 03:12:18;;;;;;;0.20;0.10;;;;;;;;;;2049867;28;20047;-83
2021/11/12 03:13:37;;;;;;;0.40;0.25;;;;;;;;;;2041955;28;20040;-83
2021/11/12 03:14:56;;;;;;;0.32;0.20;;;;;;;;;;2042901;28;20634;-83
2021/11/12 03:16:16;;;;;;;1.25;0.10;;;;;;;;;;2044788;28;20035;-82
2021/11/12 03:17:36;;;;;;;0.95;0.20;;;;;;;;;;2047338;28;20185;-83
2021/11/12 03:18:55;;;;;;;0.08;0.08;;;;;;;;;;2048405;28;20061;-83
2021/11/12 03:20:15;;;;;;;0.10;0.10;;;;;;;;;;2046980;28;20499;-83
2021/11/12 03:21:34;;;;;;;0.73;0.30;;;;;;;;;;2045571;28;21059;-83
2021/11/12 03:27:31;;;;;;;2.13;0.10;;;;;;;;;;2065698;28;20031;-83
2021/11/12 04:03:12;;;;;;;0.25;0.20;;;;;;;;;;2047443;28;20039;-83
2021/11/12 04:06:48;;;;;;;0.28;0.20;;;;;;;;;;2047736;28;20047;-83
2021/11/12 04:21:02;;;;;;;0.20;0.20;;;;;;;;;;2064505;28;20105;-83
2021/11/12 04:31:15;;;;;;;0.30;0.20;;;;;;;;;;2047940;29;20031;-83
2021/11/12 04:41:25;;;;;;;0.20;0.20;;;;;;;;;;2047157;28;20039;-83
2021/11/12 05:26:06;;;;;;;1.10;0.30;;;;;;;;;;2050877;28;20035;-82
2021/11/12 05:46:39;;;;;;;0.90;0.30;;;;;;;;;;2050874;28;20021;-83
2021/11/12 05:55:33;;;;;;;1.05;0.32;;;;;;;;;;2048730;28;20110;-83
2021/11/12 05:56:53;;;;;;;1.20;0.47;;;;;;;;;;2050392;28;20445;-83
2021/11/12 05:58:12;;;;;;;2.25;0.38;;;;;;;;;;2047978;28;20039;-83
2021/11/12 05:59:31;;;;;;;0.50;0.40;;;;;;;;;;2045794;28;20035;-83
2021/11/12 06:00:50;;;;;;;1.88;0.40;;;;;;;;;;2044959;28;20043;-84
2021/11/12 06:02:09;;;;;;;0.98;0.43;;;;;;;;;;2047778;28;20039;-82
2021/11/12 06:03:28;;;;;;;0.45;0.30;;;;;;;;;;2052387;28;20070;-84
2021/11/12 06:04:47;;;;;;;1.98;0.60;;;;;;;;;;2049438;28;20429;-84
2021/11/12 06:06:06;;;;;;;0.60;0.45;;;;;;;;;;2044445;28;20019;-84
2021/11/12 06:07:25;;;;;;;0.50;0.30;;;;;;;;;;2045730;28;20479;-84
2021/11/12 06:08:44;;;;;;;0.70;0.22;;;;;;;;;;2045402;28;20039;-85
2021/11/12 06:10:05;;;;;;;2.40;0.50;;;;;;;;;;2045719;28;20027;-84
2021/11/12 06:11:27;;;;;;;0.40;0.30;;;;;;;;;;2050334;28;20372;-83
2021/11/12 06:12:47;;;;;;;0.30;0.30;;;;;;;;;;2049184;28;20043;-83
2021/11/12 06:14:06;;;;;;;1.02;0.30;;;;;;;;;;2052586;28;20066;-83
2021/11/12 06:15:25;;;;;;;2.47;0.22;;;;;;;;;;2043989;28;20031;-83
2021/11/12 06:16:43;;;;;;;0.98;0.50;;;;;;;;;;2046352;28;20102;-80
2021/11/12 06:18:02;;;;;;;1.90;0.75;;;;;;;;;;2048097;28;20031;-84
2021/11/12 06:19:22;;;;;;;7.32;1.00;;;;;;;;;;2052739;28;20047;-83
2021/11/12 06:20:41;;;;;;;2.72;0.40;;;;;;;;;;2049974;28;20127;-83
2021/11/12 06:22:00;;;;;;;1.67;0.50;;;;;;;;;;2047382;28;20017;-85
2021/11/12 06:23:20;;;;;;;0.40;0.32;;;;;;;;;;2040907;28;20027;-85
2021/11/12 06:24:39;;;;;;;1.85;0.43;;;;;;;;;;2048359;28;20023;-85
2021/11/12 06:25:57;;;;;;;0.98;0.50;;;;;;;;;;2048841;28;20025;-84
2021/11/12 06:27:16;;;;;;;0.85;0.30;;;;;;;;;;2044548;28;20106;-85
2021/11/12 06:28:36;;;;;;;0.47;0.45;;;;;;;;;;2045400;28;20415;-85
2021/11/12 06:29:55;;;;;;;2.72;0.50;;;;;;;;;;2044222;28;20036;-84
2021/11/12 06:31:14;;;;;;;1.95;0.30;;;;;;;;;;2044727;28;20503;-86
2021/11/12 06:32:34;;;;;;;0.50;0.30;;;;;;;;;;2047285;28;20456;-85
2021/11/12 06:33:54;;;;;;;4.35;0.68;;;;;;;;;;2047366;28;20027;-85
2021/11/12 06:35:13;;;;;;;1.63;0.40;;;;;;;;;;2048157;28;20043;-85
2021/11/12 06:36:32;;;;;;;1.23;0.45;;;;;;;;;;2043168;28;20043;-85
2021/11/12 06:37:55;;;;;;;4.68;0.52;;;;;;;;;;2051182;28;20035;-85
2021/11/12 06:39:16;;;;;;;1.90;0.73;;;;;;;;;;2047183;28;20023;-83
2021/11/12 06:40:35;;;;;;;4.85;0.75;;;;;;;;;;2046936;28;20044;-84
2021/11/12 06:41:56;;;;;;;2.30;0.60;;;;;;;;;;2048659;28;20491;-85
2021/11/12 06:49:34;;;;;;;3.38;0.57;;;;;;;;;;2050390;28;20091;-80
2021/11/12 06:50:54;;;;;;;17.95;1.27;;;;;;;;;;2044947;29;20118;-81
2021/11/12 06:52:13;;;;;;;9.45;1.45;;;;;;;;;;2043373;28;20110;-81
2021/11/12 06:53:32;;;;;;;6.65;0.55;;;;;;;;;;2046950;28;20039;-81
2021/11/12 06:54:52;;;;;;;1.67;0.32;;;;;;;;;;2044142;28;20071;-80
2021/11/12 06:56:11;;;;;;;0.80;0.30;;;;;;;;;;2045275;29;20039;-82
2021/11/12 06:57:30;;;;;;;1.70;0.70;;;;;;;;;;2047018;29;20047;-81
2021/11/12 06:58:49;;;;;;;1.98;0.32;;;;;;;;;;2052257;28;20063;-81
2021/11/12 07:00:11;;;;;;;2.03;0.47;;;;;;;;;;2045714;28;20031;-81
2021/11/12 07:01:30;;;;;;;2.03;0.50;;;;;;;;;;2045912;28;20459;-81
2021/11/12 07:02:51;;;;;;;0.70;0.40;;;;;;;;;;2056762;28;20071;-81
2021/11/12 07:04:10;;;;;;;2.35;0.50;;;;;;;;;;2045491;28;20039;-82
2021/11/12 07:05:29;;;;;;;5.43;0.75;;;;;;;;;;2043558;28;20040;-82
2021/11/12 07:06:47;;;;;;;0.63;0.60;;;;;;;;;;2041301;28;20032;-80
2021/11/12 07:08:06;;;;;;;2.10;0.30;;;;;;;;;;2043019;29;20070;-80
2021/11/12 07:09:25;;;;;;;2.03;0.50;;;;;;;;;;2043293;28;20027;-81
2021/11/12 07:10:45;;;;;;;0.40;0.30;;;;;;;;;;2044852;28;20058;-83
2021/11/12 07:12:04;;;;;;;2.60;0.40;;;;;;;;;;2043856;28;20101;-81
2021/11/12 07:13:28;;;;;;;10.43;0.93;;;;;;;;;;2046879;28;20043;-81
2021/11/12 07:14:48;;;;;;;1.15;0.38;;;;;;;;;;2047383;28;20637;-80
2021/11/12 07:16:07;;;;;;;3.50;1.00;;;;;;;;;;2046530;28;20055;-81
2021/11/12 07:17:25;;;;;;;8.50;0.90;;;;;;;;;;2047279;28;20023;-81
2021/11/12 07:18:44;;;;;;;4.53;0.68;;;;;;;;;;2051996;28;20031;-80
2021/11/12 07:20:05;;;;;;;1.10;0.35;;;;;;;;;;2044010;29;20015;-81
2021/11/12 07:21:24;;;;;;;1.70;0.60;;;;;;;;;;2043859;28;20031;-80
2021/11/12 07:22:44;;;;;;;3.45;0.60;;;;;;;;;;2047344;28;20067;-80
2021/11/12 07:24:03;;;;;;;2.72;0.98;;;;;;;;;;2051565;28;20027;-81
2021/11/12 07:25:22;;;;;;;3.42;0.43;;;;;;;;;;2046747;28;20494;-80
2021/11/12 07:26:43;;;;;;;0.30;0.30;;;;;;;;;;2046525;28;20440;-82
2021/11/12 07:28:02;;;;;;;1.02;0.38;;;;;;;;;;2047242;28;20480;-81
2021/11/12 07:29:24;;;;;;;0.68;0.35;;;;;;;;;;2046597;28;20027;-82
2021/11/12 07:30:44;;;;;;;2.42;0.75;;;;;;;;;;2047346;28;20034;-81
2021/11/12 07:32:04;;;;;;;2.78;0.63;;;;;;;;;;2046808;28;20028;-81
2021/11/12 07:33:24;;;;;;;14.32;1.45;;;;;;;;;;2052824;28;20483;-81
2021/11/12 07:34:45;;;;;;;4.10;0.80;;;;;;;;;;2047360;28;20063;-81
2021/11/12 07:36:10;;;;;;;5.07;0.50;;;;;;;;;;2045123;28;20039;-81
2021/11/12 07:37:30;;;;;;;2.28;0.40;;;;;;;;;;2045611;28;20035;-81
2021/11/12 07:38:58;;;;;;;10.43;0.82;;;;;;;;;;2047279;28;20098;-80
2021/11/12 07:40:30;;;;;;;0.70;0.40;;;;;;;;;;2045602;28;20114;-80
2021/11/12 07:42:38;;;;;;;4.57;0.57;;;;;;;;;;2047023;28;20035;-80
2021/11/12 07:45:19;;;;;;;1.80;0.40;;;;;;;;;;2051505;28;20487;-81
2021/11/12 07:47:57;;;;;;;6.25;1.02;;;;;;;;;;2048985;28;20336;-81
2021/11/12 07:49:16;;;;;;;2.17;0.60;;;;;;;;;;2045371;28;20031;-84
2021/11/12 07:50:36;;;;;;;4.95;1.38;;;;;;;;;;2048583;28;20432;-82
2021/11/12 07:51:56;;;;;;;2.70;0.77;;;;;;;;;;2051100;28;20043;-84
2021/11/12 07:53:15;;;;;;;2.58;0.20;;;;;;;;;;2047856;28;22088;-83
2021/11/12 07:54:33;;;;;;;2.00;0.35;;;;;;;;;;2044234;28;20031;-79
2021/11/12 07:55:53;;;;;;;0.80;0.40;;;;;;;;;;2048901;28;20032;-82
2021/11/12 07:57:13;;;;;;;3.60;0.45;;;;;;;;;;2047231;28;20019;-82
2021/11/12 07:58:32;;;;;;;3.45;0.47;;;;;;;;;;2042199;28;20074;-82
2021/11/12 07:59:51;;;;;;;3.05;0.45;;;;;;;;;;2043537;28;20027;-82
2021/11/12 08:01:10;;;;;;;1.23;0.30;;;;;;;;;;2046373;28;20118;-82
2021/11/12 08:02:29;;;;;;;3.75;0.55;;;;;;;;;;2044919;28;20403;-81
2021/11/12 08:03:52;;;;;;;7.05;0.88;;;;;;;;;;2045301;28;20019;-83
2021/11/12 08:05:19;;;;;;;6.25;0.70;;;;;;;;;;2049351;28;20119;-82
2021/11/12 08:06:39;;;;;;;2.67;0.38;;;;;;;;;;2048360;28;20039;-83
2021/11/12 08:08:05;;;;;;;1.92;0.30;;;;;;;;;;2045484;28;20019;-80
2021/11/12 08:09:28;;;;;;;1.77;0.30;;;;;;;;;;2042852;28;20090;-80
2021/11/12 08:10:57;;;;;;;7.85;0.50;;;;;;;;;;2046887;29;20023;-80
2021/11/12 08:12:25;;;;;;;1.85;0.30;;;;;;;;;;2044502;28;21325;-81
2021/11/12 08:13:55;;;;;;;0.40;0.40;;;;;;;;;;2043236;28;20434;-80
2021/11/12 08:15:29;;;;;;;2.28;0.20;;;;;;;;;;2047378;28;20442;-81
2021/11/12 08:18:55;;;;;;;4.53;0.60;;;;;;;;;;2044695;28;20039;-81
2021/11/12 08:21:39;;;;;;;0.85;0.40;;;;;;;;;;2046573;28;20047;-79
2021/11/12 08:23:05;;;;;;;8.65;1.20;;;;;;;;;;2044617;28;20395;-81
2021/11/12 08:31:21;;;;;;;1.75;0.40;;;;;;;;;;2058898;28;20508;-81
2021/11/12 08:34:40;;;;;;;1.30;0.30;;;;;;;;;;2056747;28;20039;-81
2021/11/12 08:38:19;;;;;;;0.20;0.10;;;;;;;;;;2043852;28;20044;-81
2021/11/12 08:39:54;;;;;;;1.17;0.40;;;;;;;;;;2046227;28;20031;-81
2021/11/12 08:41:18;;;;;;;3.10;0.30;;;;;;;;;;2046815;28;20059;-81
2021/11/12 08:42:42;;;;;;;10.35;0.95;;;;;;;;;;2043879;29;20495;-81
2021/11/12 08:44:07;;;;;;;3.28;0.20;;;;;;;;;;2047404;28;20024;-80
2021/11/12 08:45:29;;;;;;;1.73;0.40;;;;;;;;;;2046453;28;20559;-81
2021/11/12 08:48:20;;;;;;;0.50;0.35;;;;;;;;;;2048387;28;20031;-81
2021/11/12 08:49:42;;;;;;;5.00;0.32;;;;;;;;;;2046804;28;20039;-81
2021/11/12 08:51:01;;;;;;;3.92;0.38;;;;;;;;;;2047306;28;20574;-80
2021/11/12 08:52:23;;;;;;;1.85;0.43;;;;;;;;;;2043229;28;20039;-80
2021/11/12 08:53:43;;;;;;;5.30;0.30;;;;;;;;;;2049171;28;20031;-81
2021/11/12 08:55:06;;;;;;;4.75;0.50;;;;;;;;;;2044300;28;20709;-81
2021/11/12 08:56:25;;;;;;;2.50;0.30;;;;;;;;;;2043364;28;20102;-80
2021/11/12 08:57:44;;;;;;;3.05;0.52;;;;;;;;;;2045476;28;20074;-80
2021/11/12 08:59:03;;;;;;;1.27;0.30;;;;;;;;;;2048035;28;20074;-81
2021/11/12 09:00:22;;;;;;;0.73;0.30;;;;;;;;;;2042808;28;20031;-81
2021/11/12 09:01:42;;;;;;;1.10;0.40;;;;;;;;;;2044129;28;20051;-81
2021/11/12 09:03:01;;;;;;;3.53;0.60;;;;;;;;;;2046019;28;20664;-81
2021/11/12 09:04:20;;;;;;;3.90;0.77;;;;;;;;;;2046907;28;20024;-80
2021/11/12 09:05:39;;;;;;;2.17;1.00;;;;;;;;;;2045023;28;20027;-81
2021/11/12 09:06:57;;;;;;;13.15;0.93;;;;;;;;;;2046441;28;20027;-81
2021/11/12 09:08:16;;;;;;;4.88;0.60;;;;;;;;;;2046611;28;21581;-81
2021/11/12 09:09:36;;;;;;;2.35;0.50;;;;;;;;;;2048370;28;20411;-81
2021/11/12 09:10:55;;;;;;;4.18;0.55;;;;;;;;;;2047047;28;20027;-81
2021/11/12 09:12:15;;;;;;;3.00;1.00;;;;;;;;;;2056417;28;20568;-81
2021/11/12 09:13:41;;;;;;;9.93;0.60;;;;;;;;;;2042896;28;20039;-81
2021/11/12 09:15:03;;;;;;;8.15;0.40;;;;;;;;;;2052128;28;20063;-80
2021/11/12 09:16:30;;;;;;;2.30;0.35;;;;;;;;;;2045672;28;20411;-80
2021/11/12 09:17:49;;;;;;;2.85;0.50;;;;;;;;;;2043619;28;20043;-81
2021/11/12 09:19:09;;;;;;;3.08;0.47;;;;;;;;;;2042995;28;20150;-81
2021/11/12 09:20:28;;;;;;;0.63;0.20;;;;;;;;;;2042442;28;20411;-80
2021/11/12 09:21:47;;;;;;;2.78;0.57;;;;;;;;;;2042352;29;20598;-80
2021/11/12 09:23:06;;;;;;;0.38;0.30;;;;;;;;;;2047613;28;20380;-80
2021/11/12 09:24:25;;;;;;;2.83;0.40;;;;;;;;;;2044328;28;20031;-80
2021/11/12 09:25:44;;;;;;;1.10;0.22;;;;;;;;;;2042026;28;20023;-81
2021/11/12 09:27:04;;;;;;;1.42;0.35;;;;;;;;;;2043459;28;20031;-81
2021/11/12 09:28:22;;;;;;;5.97;0.52;;;;;;;;;;2043849;28;20114;-81
2021/11/12 09:29:42;;;;;;;4.05;0.75;;;;;;;;;;2050179;28;20031;-81
2021/11/12 09:31:02;;;;;;;4.25;0.40;;;;;;;;;;2048275;28;20415;-81
2021/11/12 09:32:21;;;;;;;3.15;0.38;;;;;;;;;;2043883;28;20036;-81
2021/11/12 09:33:40;;;;;;;4.28;0.52;;;;;;;;;;2043973;28;20499;-81
2021/11/12 09:34:59;;;;;;;3.58;0.40;;;;;;;;;;2051698;28;20480;-80
2021/11/12 09:36:17;;;;;;;0.57;0.13;;;;;;;;;;2048061;28;20455;-80
2021/11/12 09:37:36;;;;;;;2.47;0.30;;;;;;;;;;2045353;28;20039;-81
2021/11/12 09:38:55;;;;;;;3.60;0.57;;;;;;;;;;2046786;28;20515;-81
2021/11/12 09:40:15;;;;;;;2.33;0.50;;;;;;;;;;2052336;28;20039;-80
2021/11/12 09:41:33;;;;;;;4.47;0.52;;;;;;;;;;2045456;28;20035;-80
2021/11/12 09:42:52;;;;;;;2.40;0.75;;;;;;;;;;2044665;28;20027;-80
2021/11/12 09:44:11;;;;;;;4.75;1.10;;;;;;;;;;2049064;28;20558;-80
2021/11/12 09:45:30;;;;;;;0.30;0.20;;;;;;;;;;2050520;28;20038;-80
2021/11/12 09:46:49;;;;;;;5.75;0.30;;;;;;;;;;2048297;28;20019;-80
2021/11/12 09:48:09;;;;;;;4.70;0.60;;;;;;;;;;2042037;28;20503;-81
2021/11/12 09:49:28;;;;;;;6.95;1.05;;;;;;;;;;2046451;28;20098;-81
2021/11/12 09:50:47;;;;;;;3.50;0.70;;;;;;;;;;2047972;28;20138;-80
2021/11/12 09:52:09;;;;;;;4.20;0.55;;;;;;;;;;2046428;28;20476;-80
2021/11/12 09:53:28;;;;;;;1.15;0.35;;;;;;;;;;2053233;28;20038;-80
2021/11/12 09:54:48;;;;;;;1.70;0.50;;;;;;;;;;2047238;28;20505;-80
2021/11/12 09:56:11;;;;;;;4.55;0.50;;;;;;;;;;2044505;28;20035;-80
2021/11/12 09:57:30;;;;;;;3.55;0.77;;;;;;;;;;2045724;28;20035;-81
2021/11/12 09:58:50;;;;;;;3.83;0.65;;;;;;;;;;2043810;28;20031;-80
2021/11/12 10:00:10;;;;;;;1.67;0.40;;;;;;;;;;2043729;28;20033;-80
2021/11/12 10:01:33;;;;;;;4.00;0.70;;;;;;;;;;2048068;28;20480;-80
2021/11/12 10:02:52;;;;;;;10.10;0.93;;;;;;;;;;2047536;28;20031;-80
2021/11/12 10:04:11;;;;;;;1.67;0.50;;;;;;;;;;2044017;28;20430;-80
2021/11/12 10:05:33;;;;;;;2.30;0.40;;;;;;;;;;2049566;28;20816;-80
2021/11/12 10:06:56;;;;;;;0.80;0.30;;;;;;;;;;2044807;28;20031;-80
2021/11/12 10:08:19;;;;;;;1.13;0.30;;;;;;;;;;2045853;28;20491;-80
2021/11/12 10:09:39;;;;;;;3.22;0.30;;;;;;;;;;2049442;28;20023;-80
2021/11/12 10:11:03;;;;;;;5.50;0.35;;;;;;;;;;2047267;28;20035;-80
2021/11/12 10:12:32;;;;;;;4.25;0.70;;;;;;;;;;2046088;28;20457;-81
2021/11/12 10:13:59;;;;;;;3.63;0.40;;;;;;;;;;2053454;28;20030;-80
2021/11/12 10:15:24;;;;;;;4.45;0.40;;;;;;;;;;2047986;28;20525;-80
2021/11/12 10:16:54;;;;;;;1.60;0.75;;;;;;;;;;2048795;28;20391;-80
2021/11/12 10:18:15;;;;;;;2.53;0.50;;;;;;;;;;2046774;28;20027;-81
2021/11/12 10:19:48;;;;;;;4.43;0.90;;;;;;;;;;2046812;28;20035;-80
2021/11/12 10:21:08;;;;;;;7.78;0.93;;;;;;;;;;2046746;28;20486;-80
2021/11/12 10:22:31;;;;;;;4.43;0.70;;;;;;;;;;2047227;28;20035;-80
2021/11/12 10:23:57;;;;;;;2.67;0.80;;;;;;;;;;2049632;28;20031;-81
2021/11/12 10:25:16;;;;;;;1.30;0.50;;;;;;;;;;2049416;28;20080;-81
2021/11/12 10:26:36;;;;;;;4.03;0.47;;;;;;;;;;2047830;28;20027;-80
2021/11/12 10:27:55;;;;;;;6.72;1.00;;;;;;;;;;2045188;28;20046;-80
2021/11/12 10:29:15;;;;;;;2.53;0.50;;;;;;;;;;2045629;28;20062;-80
2021/11/12 10:30:39;;;;;;;2.30;0.65;;;;;;;;;;2047175;28;20023;-81
2021/11/12 10:32:00;;;;;;;7.18;0.57;;;;;;;;;;2055054;28;20034;-81
2021/11/12 10:33:19;;;;;;;3.92;0.63;;;;;;;;;;2048162;28;20407;-80
2021/11/12 10:34:39;;;;;;;2.08;0.47;;;;;;;;;;2044964;28;20455;-80
2021/11/12 10:35:58;;;;;;;5.53;0.70;;;;;;;;;;2048495;28;20351;-81
2021/11/12 10:37:22;;;;;;;1.48;0.30;;;;;;;;;;2042571;28;20574;-81
2021/11/12 10:38:42;;;;;;;1.00;0.68;;;;;;;;;;2052717;28;20112;-82
2021/11/12 10:40:08;;;;;;;2.60;0.50;;;;;;;;;;2039725;28;20504;-81
2021/11/12 10:41:29;;;;;;;5.70;0.50;;;;;;;;;;2046813;29;20036;-80
2021/11/12 10:42:55;;;;;;;4.68;0.25;;;;;;;;;;2055873;28;20039;-81
2021/11/12 10:44:14;;;;;;;12.02;1.45;;;;;;;;;;2047511;28;20040;-83
2021/11/12 10:45:36;;;;;;;3.05;0.70;;;;;;;;;;2049658;28;20027;-81
2021/11/12 10:46:56;;;;;;;6.20;0.70;;;;;;;;;;2051351;28;20051;-82
2021/11/12 10:48:27;;;;;;;1.98;0.40;;;;;;;;;;2048883;28;20035;-82
2021/11/12 10:49:47;;;;;;;4.78;0.60;;;;;;;;;;2046529;28;20031;-82
2021/11/12 10:51:17;;;;;;;3.63;0.50;;;;;;;;;;2043748;28;20027;-82
2021/11/12 10:52:38;;;;;;;3.15;0.40;;;;;;;;;;2047484;28;20040;-82
2021/11/12 10:53:57;;;;;;;1.55;0.30;;;;;;;;;;2047241;28;20047;-82
2021/11/12 10:55:17;;;;;;;4.55;0.47;;;;;;;;;;2048978;28;20057;-82
2021/11/12 10:56:49;;;;;;;1.95;0.85;;;;;;;;;;2051392;28;20039;-82
2021/11/12 10:58:09;;;;;;;2.85;0.30;;;;;;;;;;2045910;28;20028;-82
2021/11/12 10:59:28;;;;;;;1.58;0.30;;;;;;;;;;2044314;28;20035;-82
2021/11/12 11:00:48;;;;;;;0.80;0.40;;;;;;;;;;2047873;29;20035;-81
2021/11/12 11:02:07;;;;;;;6.32;0.70;;;;;;;;;;2049872;28;20015;-82
2021/11/12 11:03:26;;;;;;;4.68;0.45;;;;;;;;;;2046185;29;20028;-82
2021/11/12 11:04:45;;;;;;;3.20;0.32;;;;;;;;;;2046610;28;20028;-83
2021/11/12 11:06:05;;;;;;;1.88;0.35;;;;;;;;;;2045378;28;20070;-81
2021/11/12 11:07:25;;;;;;;0.40;0.30;;;;;;;;;;2046990;28;20020;-82
2021/11/12 11:08:50;;;;;;;3.33;0.50;;;;;;;;;;2049915;28;20489;-82
2021/11/12 11:10:21;;;;;;;3.17;0.47;;;;;;;;;;2045901;28;20031;-83
2021/11/12 11:11:41;;;;;;;4.35;0.60;;;;;;;;;;2046575;28;20031;-82
2021/11/12 11:13:09;;;;;;;1.60;0.50;;;;;;;;;;2051901;28;20122;-82
2021/11/12 11:14:31;;;;;;;5.57;0.90;;;;;;;;;;2046620;28;20142;-82
2021/11/12 11:15:52;;;;;;;4.75;0.82;;;;;;;;;;2046567;28;20039;-81
2021/11/12 11:17:27;;;;;;;8.05;0.77;;;;;;;;;;2050119;28;20158;-82
2021/11/12 11:18:51;;;;;;;4.20;0.70;;;;;;;;;;2049034;28;20027;-82
2021/11/12 11:20:14;;;;;;;4.43;0.73;;;;;;;;;;2048463;28;20031;-82
2021/11/12 11:21:35;;;;;;;8.02;1.20;;;;;;;;;;2047658;28;20479;-82
2021/11/12 11:22:59;;;;;;;3.60;0.60;;;;;;;;;;2049414;28;20032;-82